createdAt,value
2022-08-31T00:01:40.590Z,100844.66
2022-08-31T00:04:10.686Z,100832.41
2022-08-31T00:06:38.759Z,100834.97
2022-08-31T00:09:07.592Z,100834.59
2022-08-31T00:11:37.510Z,100837.53
2022-08-31T00:14:10.811Z,100833.06
2022-08-31T00:16:43.816Z,100837.28
2022-08-31T00:19:13.012Z,100834.47
2022-08-31T00:21:44.876Z,100844.69
2022-08-31T00:24:14.499Z,100849.00
2022-08-31T00:26:42.710Z,100865.47
2022-08-31T00:29:11.899Z,100866.50
2022-08-31T00:31:39.526Z,100855.75
2022-08-31T00:34:08.574Z,100840.94
2022-08-31T00:36:36.480Z,100846.44
2022-08-31T00:39:06.428Z,100833.91
2022-08-31T00:41:37.864Z,100835.28
2022-08-31T00:44:08.727Z,100835.66
2022-08-31T00:46:40.274Z,100831.75
2022-08-31T00:49:09.825Z,100829.09
2022-08-31T00:51:43.973Z,100835.47
2022-08-31T00:54:14.291Z,100837.97
2022-08-31T00:56:44.909Z,100834.53
2022-08-31T00:59:15.224Z,100836.28
2022-08-31T01:01:42.925Z,100831.13
2022-08-31T01:04:11.177Z,100833.03
2022-08-31T01:06:40.122Z,100844.16
2022-08-31T01:09:09.408Z,100845.53
2022-08-31T01:11:40.038Z,100850.69
2022-08-31T01:14:08.789Z,100853.19
2022-08-31T01:16:46.208Z,100850.13
2022-08-31T01:20:06.998Z,100846.72
2022-08-31T01:22:48.828Z,100845.69
2022-08-31T01:25:16.587Z,100843.19
2022-08-31T01:27:45.257Z,100849.03
2022-08-31T01:30:22.252Z,100844.13
2022-08-31T01:32:50.089Z,100848.91
2022-08-31T01:35:20.000Z,100857.75
2022-08-31T01:37:48.318Z,100856.63
2022-08-31T01:40:17.251Z,100860.31
2022-08-31T01:42:44.971Z,100862.66
2022-08-31T01:45:13.333Z,100855.47
2022-08-31T01:47:41.573Z,100868.03
2022-08-31T01:50:09.455Z,100862.22
2022-08-31T01:52:38.733Z,100859.63
2022-08-31T01:55:08.545Z,100860.41
2022-08-31T01:57:36.681Z,100860.06
2022-08-31T02:00:31.346Z,100858.72
2022-08-31T02:03:01.884Z,100858.31
2022-08-31T02:05:30.024Z,100853.34
2022-08-31T02:07:58.002Z,100856.31
2022-08-31T02:10:25.672Z,100848.53
2022-08-31T02:12:54.064Z,100845.00
2022-08-31T02:15:31.425Z,100842.31
2022-08-31T02:17:59.851Z,100845.03
2022-08-31T02:20:28.718Z,100846.69
2022-08-31T02:22:56.774Z,100838.91
2022-08-31T02:25:24.631Z,100835.13
2022-08-31T02:27:52.961Z,100842.59
2022-08-31T02:30:20.778Z,100840.09
2022-08-31T02:32:48.354Z,100834.75
2022-08-31T02:35:15.944Z,100832.03
2022-08-31T02:37:43.895Z,100837.22
2022-08-31T02:40:13.515Z,100832.25
2022-08-31T02:42:52.743Z,100835.44
2022-08-31T02:45:24.227Z,100841.66
2022-08-31T02:47:52.370Z,100837.94
2022-08-31T02:50:47.385Z,100829.19
2022-08-31T02:53:16.612Z,100833.81
2022-08-31T02:55:45.078Z,100836.19
2022-08-31T02:58:13.955Z,100837.06
2022-08-31T03:00:46.735Z,100834.31
2022-08-31T03:03:15.671Z,100837.38
2022-08-31T03:05:45.480Z,100844.09
2022-08-31T03:08:13.476Z,100848.84
2022-08-31T03:10:42.533Z,100849.13
2022-08-31T03:13:10.104Z,100855.28
2022-08-31T03:15:38.313Z,100860.16
2022-08-31T03:18:07.247Z,100862.47
2022-08-31T03:20:35.512Z,100849.59
2022-08-31T03:23:04.457Z,100849.50
2022-08-31T03:25:32.460Z,100857.59
2022-08-31T03:28:01.001Z,100850.34
2022-08-31T03:30:31.951Z,100854.50
2022-08-31T03:33:07.588Z,100856.69
2022-08-31T03:35:36.072Z,100859.19
2022-08-31T03:38:05.528Z,100854.78
2022-08-31T03:40:34.074Z,100858.47
2022-08-31T03:43:03.071Z,100858.19
2022-08-31T03:45:32.108Z,100864.97
2022-08-31T03:48:00.544Z,100860.78
2022-08-31T03:50:28.643Z,100866.28
2022-08-31T03:53:05.054Z,100857.59
2022-08-31T03:55:35.090Z,100859.34
2022-08-31T03:58:04.988Z,100867.03
2022-08-31T04:00:35.266Z,100866.50
2022-08-31T04:03:07.840Z,100873.03
2022-08-31T04:05:53.926Z,100868.97
2022-08-31T04:08:25.358Z,100859.94
2022-08-31T04:11:16.003Z,100868.81
2022-08-31T04:14:03.192Z,100862.50
2022-08-31T04:16:37.508Z,100868.97
2022-08-31T04:19:24.925Z,100870.31
2022-08-31T04:22:01.319Z,100872.97
2022-08-31T04:24:30.228Z,100874.66
2022-08-31T04:26:58.321Z,100876.50
2022-08-31T04:29:25.998Z,100880.34
2022-08-31T04:31:54.430Z,100878.84
2022-08-31T04:34:22.769Z,100878.44
2022-08-31T04:36:50.780Z,100878.13
2022-08-31T04:39:19.035Z,100878.84
2022-08-31T04:41:47.078Z,100883.69
2022-08-31T04:44:19.643Z,100881.88
2022-08-31T04:46:49.285Z,100885.91
2022-08-31T04:49:17.347Z,100889.00
2022-08-31T04:51:45.036Z,100881.50
2022-08-31T04:54:14.269Z,100880.28
2022-08-31T04:56:45.108Z,100877.94
2022-08-31T04:59:18.924Z,100885.75
2022-08-31T05:02:07.606Z,100894.25
2022-08-31T05:05:00.919Z,100890.84
2022-08-31T05:07:29.216Z,100898.06
2022-08-31T05:09:59.819Z,100898.19
2022-08-31T05:12:28.747Z,100894.72
2022-08-31T05:14:56.780Z,100907.03
2022-08-31T05:17:26.968Z,100909.00
2022-08-31T05:19:55.087Z,100905.00
2022-08-31T05:22:23.143Z,100905.66
2022-08-31T05:24:53.689Z,100913.88
2022-08-31T05:27:21.225Z,100911.34
2022-08-31T05:29:49.083Z,100911.81
2022-08-31T05:32:35.769Z,100906.19
2022-08-31T05:35:07.662Z,100906.97
2022-08-31T05:37:35.259Z,100914.81
2022-08-31T05:40:03.157Z,100907.28
2022-08-31T05:42:31.063Z,100913.25
2022-08-31T05:44:58.991Z,100913.72
2022-08-31T05:47:26.590Z,100911.06
2022-08-31T05:49:54.942Z,100909.06
2022-08-31T05:52:25.056Z,100913.34
2022-08-31T05:54:54.661Z,100914.13
2022-08-31T05:57:26.536Z,100909.81
2022-08-31T05:59:56.390Z,100914.91
2022-08-31T06:02:27.653Z,100922.25
2022-08-31T06:04:58.748Z,100916.75
2022-08-31T06:07:27.896Z,100924.16
2022-08-31T06:10:01.404Z,100924.66
2022-08-31T06:12:33.808Z,100934.50
2022-08-31T06:15:02.611Z,100934.28
2022-08-31T06:17:30.454Z,100926.78
2022-08-31T06:19:58.911Z,100934.69
2022-08-31T06:22:27.931Z,100929.59
2022-08-31T06:24:57.061Z,100931.59
2022-08-31T06:27:25.034Z,100926.59
2022-08-31T06:29:55.184Z,100931.59
2022-08-31T06:32:23.787Z,100930.59
2022-08-31T06:34:58.581Z,100931.28
2022-08-31T06:37:45.459Z,100936.84
2022-08-31T06:40:31.517Z,100934.56
2022-08-31T06:43:18.247Z,100929.50
2022-08-31T06:46:02.375Z,100936.56
2022-08-31T06:48:35.246Z,100932.22
2022-08-31T06:51:03.868Z,100927.97
2022-08-31T06:53:31.532Z,100933.03
2022-08-31T06:56:16.505Z,100938.88
2022-08-31T06:59:25.267Z,100938.56
2022-08-31T07:02:13.819Z,100935.19
2022-08-31T07:04:41.940Z,100936.19
2022-08-31T07:07:11.642Z,100931.78
2022-08-31T07:09:44.494Z,100940.47
2022-08-31T07:12:12.539Z,100943.09
2022-08-31T07:14:41.600Z,100933.28
2022-08-31T07:17:18.127Z,100933.47
2022-08-31T07:19:46.284Z,100942.53
2022-08-31T07:22:16.167Z,100934.50
2022-08-31T07:24:46.320Z,100940.13
2022-08-31T07:27:18.589Z,100936.31
2022-08-31T07:30:00.478Z,100939.34
2022-08-31T07:32:32.833Z,100936.06
2022-08-31T07:35:01.908Z,100946.78
2022-08-31T07:37:50.995Z,100947.84
2022-08-31T07:40:46.716Z,100943.75
2022-08-31T07:43:15.720Z,100953.31
2022-08-31T07:45:45.559Z,100952.06
2022-08-31T07:48:20.976Z,100949.78
2022-08-31T07:51:04.012Z,100959.22
2022-08-31T07:53:42.770Z,100958.59
2022-08-31T07:56:34.993Z,100969.53
2022-08-31T07:59:12.485Z,100963.50
2022-08-31T08:01:41.869Z,100966.31
2022-08-31T08:04:13.270Z,100965.16
2022-08-31T08:07:06.066Z,100967.84
2022-08-31T08:09:55.381Z,100967.44
2022-08-31T08:12:48.725Z,100970.72
2022-08-31T08:15:35.388Z,100971.66
2022-08-31T08:18:26.788Z,100967.13
2022-08-31T08:20:59.186Z,100961.91
2022-08-31T08:23:29.060Z,100965.91
2022-08-31T08:26:21.354Z,100961.78
2022-08-31T08:29:06.179Z,100967.16
2022-08-31T08:31:37.494Z,100972.09
2022-08-31T08:34:05.697Z,100964.63
2022-08-31T08:36:36.837Z,100972.09
2022-08-31T08:39:08.198Z,100969.19
2022-08-31T08:41:39.385Z,100970.16
2022-08-31T08:44:18.137Z,100972.38
2022-08-31T08:46:54.227Z,100965.50
2022-08-31T08:49:35.599Z,100965.66
2022-08-31T08:52:11.819Z,100969.38
2022-08-31T08:54:46.930Z,100962.13
2022-08-31T08:57:27.089Z,100963.84
2022-08-31T09:00:01.360Z,100958.53
2022-08-31T09:03:01.279Z,100953.94
2022-08-31T09:06:27.258Z,100956.53
2022-08-31T09:09:24.830Z,100955.88
2022-08-31T09:12:09.302Z,100957.81
2022-08-31T09:15:11.410Z,100959.41
2022-08-31T09:18:00.088Z,100964.72
2022-08-31T09:20:32.654Z,100958.56
2022-08-31T09:23:01.244Z,100948.84
2022-08-31T09:25:37.426Z,100951.31
2022-08-31T09:28:39.260Z,100938.00
2022-08-31T09:31:07.164Z,100939.59
2022-08-31T09:33:46.655Z,100946.78
2022-08-31T09:36:17.692Z,100943.38
2022-08-31T09:38:47.274Z,100941.41
2022-08-31T09:41:33.590Z,100932.19
2022-08-31T09:44:32.842Z,100917.31
2022-08-31T09:47:06.677Z,100921.16
2022-08-31T09:49:39.507Z,100918.31
2022-08-31T09:52:42.050Z,100916.53
2022-08-31T09:55:18.472Z,100913.81
2022-08-31T09:57:59.235Z,100907.06
2022-08-31T10:00:33.341Z,100904.59
2022-08-31T10:03:21.331Z,100899.75
2022-08-31T10:05:52.317Z,100897.28
2022-08-31T10:08:38.667Z,100884.00
2022-08-31T10:11:15.730Z,100885.81
2022-08-31T10:13:57.320Z,100897.50
2022-08-31T10:16:35.411Z,100894.38
2022-08-31T10:19:22.729Z,100888.50
2022-08-31T10:21:54.919Z,100882.81
2022-08-31T10:24:34.672Z,100872.88
2022-08-31T10:27:08.973Z,100870.53
2022-08-31T10:29:46.224Z,100864.41
2022-08-31T10:32:27.866Z,100854.19
2022-08-31T10:35:20.567Z,100846.88
2022-08-31T10:38:08.478Z,100839.78
2022-08-31T10:41:13.628Z,100837.22
2022-08-31T10:43:54.992Z,100822.22
2022-08-31T10:46:22.686Z,100826.34
2022-08-31T10:48:54.634Z,100832.13
2022-08-31T10:51:37.653Z,100825.41
2022-08-31T10:54:39.288Z,100822.50
2022-08-31T10:57:07.298Z,100821.59
2022-08-31T10:59:47.286Z,100825.75
2022-08-31T11:02:40.797Z,100833.25
2022-08-31T11:05:41.674Z,100838.50
2022-08-31T11:08:12.247Z,100829.94
2022-08-31T11:10:52.781Z,100831.19
2022-08-31T11:13:49.649Z,100825.50
2022-08-31T11:16:27.067Z,100830.25
2022-08-31T11:19:36.270Z,100818.03
2022-08-31T11:22:41.332Z,100821.47
2022-08-31T11:25:44.368Z,100832.72
2022-08-31T11:28:29.359Z,100823.16
2022-08-31T11:30:57.743Z,100823.94
2022-08-31T11:33:28.445Z,100827.63
2022-08-31T11:36:07.098Z,100833.22
2022-08-31T11:39:15.277Z,100822.09
2022-08-31T11:41:48.005Z,100819.34
2022-08-31T11:44:43.342Z,100831.91
2022-08-31T11:47:34.757Z,100824.41
2022-08-31T11:50:11.499Z,100818.91
2022-08-31T11:52:43.493Z,100811.28
2022-08-31T11:55:21.002Z,100801.13
2022-08-31T11:58:07.651Z,100792.19
2022-08-31T12:00:43.355Z,100791.56
2022-08-31T12:03:35.563Z,100788.75
2022-08-31T12:06:03.422Z,100785.91
2022-08-31T12:08:42.531Z,100798.19
2022-08-31T12:11:22.637Z,100797.38
2022-08-31T12:14:01.363Z,100796.91
2022-08-31T12:16:51.854Z,100810.16
2022-08-31T12:19:50.286Z,100808.78
2022-08-31T12:22:45.647Z,100818.75
2022-08-31T12:25:29.647Z,100797.78
2022-08-31T12:28:19.640Z,100793.56
2022-08-31T12:31:04.005Z,100792.53
2022-08-31T12:33:35.201Z,100792.41
2022-08-31T12:36:16.043Z,100789.47
2022-08-31T12:38:44.901Z,100786.84
2022-08-31T12:41:14.960Z,100782.75
2022-08-31T12:43:49.263Z,100780.56
2022-08-31T12:46:33.070Z,100775.38
2022-08-31T12:49:07.714Z,100762.41
2022-08-31T12:51:47.284Z,100765.63
2022-08-31T12:54:37.228Z,100767.91
2022-08-31T12:57:26.758Z,100762.66
2022-08-31T13:00:32.488Z,100768.03
2022-08-31T13:03:17.267Z,100771.81
2022-08-31T13:06:13.505Z,100768.16
2022-08-31T13:08:47.768Z,100760.25
2022-08-31T13:11:22.870Z,100750.38
2022-08-31T13:13:52.822Z,100749.16
2022-08-31T13:16:21.441Z,100746.22
2022-08-31T13:18:57.664Z,100738.03
2022-08-31T13:21:27.069Z,100733.16
2022-08-31T13:24:07.379Z,100732.75
2022-08-31T13:26:36.831Z,100719.78
2022-08-31T13:29:08.401Z,100718.13
2022-08-31T13:31:56.251Z,100720.81
2022-08-31T13:34:25.010Z,100711.22
2022-08-31T13:36:59.743Z,100708.94
2022-08-31T13:39:35.011Z,100705.34
2022-08-31T13:42:10.446Z,100700.75
2022-08-31T13:44:44.260Z,100703.97
2022-08-31T13:47:27.592Z,100698.78
2022-08-31T13:50:21.924Z,100706.28
2022-08-31T13:55:48.803Z,100690.63
2022-08-31T13:58:32.274Z,100686.38
2022-08-31T14:01:25.823Z,100689.50
2022-08-31T14:03:59.770Z,100686.88
2022-08-31T14:06:34.812Z,100688.88
2022-08-31T14:09:17.039Z,100690.06
2022-08-31T14:11:54.088Z,100677.88
2022-08-31T14:14:39.852Z,100692.56
2022-08-31T14:17:16.467Z,100691.50
2022-08-31T14:19:45.498Z,100684.88
2022-08-31T14:22:30.731Z,100681.41
2022-08-31T14:25:00.759Z,100685.28
2022-08-31T14:27:30.205Z,100681.38
2022-08-31T14:29:58.592Z,100681.06
2022-08-31T14:32:27.612Z,100679.97
2022-08-31T14:34:57.782Z,100677.75
2022-08-31T14:37:30.184Z,100671.22
2022-08-31T14:40:05.612Z,100671.47
2022-08-31T14:42:39.575Z,100670.09
2022-08-31T14:45:21.678Z,100669.63
2022-08-31T14:47:52.533Z,100671.06
2022-08-31T14:50:25.432Z,100665.56
2022-08-31T14:52:55.097Z,100669.72
2022-08-31T14:55:24.462Z,100671.31
2022-08-31T14:57:59.779Z,100663.59
2022-08-31T15:00:29.063Z,100671.91
2022-08-31T15:02:56.840Z,100674.03
2022-08-31T15:05:25.936Z,100671.97
2022-08-31T15:07:55.024Z,100659.66
2022-08-31T15:10:25.775Z,100662.09
2022-08-31T15:12:55.804Z,100662.13
2022-08-31T15:15:23.627Z,100660.56
2022-08-31T15:17:52.896Z,100650.59
2022-08-31T15:20:22.901Z,100658.94
2022-08-31T15:22:51.472Z,100647.31
2022-08-31T15:25:22.377Z,100642.50
2022-08-31T15:27:49.908Z,100643.91
2022-08-31T15:30:20.232Z,100641.50
2022-08-31T15:32:48.873Z,100638.41
2022-08-31T15:35:23.476Z,100634.28
2022-08-31T15:37:58.739Z,100640.41
2022-08-31T15:40:35.464Z,100644.69
2022-08-31T15:43:09.588Z,100637.91
2022-08-31T15:45:38.030Z,100628.00
2022-08-31T15:48:24.921Z,100627.25
2022-08-31T15:50:58.945Z,100625.25
2022-08-31T15:53:29.528Z,100622.59
2022-08-31T15:56:06.330Z,100630.66
2022-08-31T15:58:38.238Z,100631.78
2022-08-31T16:01:16.194Z,100630.47
2022-08-31T16:03:50.945Z,100622.13
2022-08-31T16:06:21.806Z,100618.59
2022-08-31T16:08:55.339Z,100619.09
2022-08-31T16:11:31.075Z,100614.88
2022-08-31T16:13:59.904Z,100613.00
2022-08-31T16:16:35.952Z,100611.34
2022-08-31T16:19:05.647Z,100613.09
2022-08-31T16:21:37.767Z,100614.97
2022-08-31T16:24:09.758Z,100612.00
2022-08-31T16:26:41.158Z,100602.59
2022-08-31T16:29:15.752Z,100607.81
2022-08-31T16:31:45.007Z,100610.72
2022-08-31T16:34:13.216Z,100607.69
2022-08-31T16:36:42.294Z,100614.91
2022-08-31T16:39:11.844Z,100616.22
2022-08-31T16:41:39.450Z,100620.91
2022-08-31T16:44:19.721Z,100617.34
2022-08-31T16:46:48.403Z,100621.91
2022-08-31T16:49:36.480Z,100637.66
2022-08-31T16:52:09.825Z,100649.09
2022-08-31T16:54:44.449Z,100657.00
2022-08-31T16:57:15.139Z,100653.09
2022-08-31T16:59:43.943Z,100653.84
2022-08-31T17:02:13.234Z,100650.81
2022-08-31T17:04:52.163Z,100638.88
2022-08-31T17:07:23.390Z,100641.72
2022-08-31T17:09:56.570Z,100649.84
2022-08-31T17:12:26.221Z,100656.63
2022-08-31T17:14:54.986Z,100656.69
2022-08-31T17:17:25.505Z,100654.16
2022-08-31T17:19:56.201Z,100653.72
2022-08-31T17:22:31.784Z,100662.38
2022-08-31T17:25:04.027Z,100670.38
2022-08-31T17:27:33.643Z,100671.16
2022-08-31T17:30:05.374Z,100673.53
2022-08-31T17:32:39.310Z,100673.31
2022-08-31T17:35:18.319Z,100678.66
2022-08-31T17:37:46.686Z,100681.56
2022-08-31T17:40:14.593Z,100681.59
2022-08-31T17:42:42.300Z,100686.31
2022-08-31T17:45:10.481Z,100687.38
2022-08-31T17:47:38.284Z,100687.53
2022-08-31T17:50:07.149Z,100683.81
2022-08-31T17:52:35.192Z,100690.53
2022-08-31T17:55:04.121Z,100689.44
2022-08-31T17:57:32.207Z,100683.41
2022-08-31T17:59:59.863Z,100692.09
2022-08-31T18:02:34.704Z,100692.09
2022-08-31T18:05:09.583Z,100690.94
2022-08-31T18:07:41.050Z,100683.75
2022-08-31T18:10:09.880Z,100677.66
2022-08-31T18:12:41.315Z,100691.34
2022-08-31T18:15:11.880Z,100687.25
2022-08-31T18:17:40.095Z,100685.13
2022-08-31T18:20:08.584Z,100686.00
2022-08-31T18:22:36.766Z,100690.91
2022-08-31T18:25:07.883Z,100692.94
2022-08-31T18:27:35.858Z,100697.28
2022-08-31T18:30:05.074Z,100683.91
2022-08-31T18:32:36.925Z,100693.59
2022-08-31T18:35:13.693Z,100689.22
2022-08-31T18:37:42.111Z,100702.38
2022-08-31T18:40:29.978Z,100714.66
2022-08-31T18:43:16.196Z,100706.97
2022-08-31T18:45:49.085Z,100717.59
2022-08-31T18:48:26.043Z,100718.09
2022-08-31T18:50:56.923Z,100712.09
2022-08-31T18:53:28.496Z,100716.53
2022-08-31T18:56:08.958Z,100708.69
2022-08-31T18:58:39.084Z,100719.75
2022-08-31T19:01:11.610Z,100722.50
2022-08-31T19:03:41.249Z,100721.19
2022-08-31T19:06:17.047Z,100726.78
2022-08-31T19:08:45.590Z,100725.06
2022-08-31T19:11:13.421Z,100727.13
2022-08-31T19:13:41.741Z,100725.91
2022-08-31T19:16:17.792Z,100723.84
2022-08-31T19:18:46.329Z,100722.66
2022-08-31T19:21:19.045Z,100722.41
2022-08-31T19:23:48.369Z,100727.25
2022-08-31T19:26:38.902Z,100730.16
2022-08-31T19:29:09.299Z,100731.66
2022-08-31T19:31:40.941Z,100734.00
2022-08-31T19:34:09.485Z,100734.06
2022-08-31T19:36:40.952Z,100739.22
2022-08-31T19:39:12.026Z,100737.13
2022-08-31T19:41:49.401Z,100734.97
2022-08-31T19:44:18.358Z,100742.53
2022-08-31T19:46:55.099Z,100741.88
2022-08-31T19:49:23.700Z,100737.66
2022-08-31T19:51:57.443Z,100738.19
2022-08-31T19:54:31.309Z,100743.28
2022-08-31T19:56:59.924Z,100733.91
2022-08-31T19:59:28.114Z,100736.59
2022-08-31T20:01:59.465Z,100730.03
2022-08-31T20:04:29.789Z,100737.09
2022-08-31T20:06:57.915Z,100738.31
2022-08-31T20:09:26.509Z,100728.34
2022-08-31T20:11:56.829Z,100729.22
2022-08-31T20:14:25.073Z,100732.56
2022-08-31T20:16:53.237Z,100731.88
2022-08-31T20:19:27.496Z,100731.53
2022-08-31T20:22:07.940Z,100730.06
2022-08-31T20:24:43.843Z,100727.38
2022-08-31T20:27:16.486Z,100732.44
2022-08-31T20:29:46.536Z,100725.91
2022-08-31T20:32:14.197Z,100730.91
2022-08-31T20:34:43.617Z,100731.13
2022-08-31T20:37:11.367Z,100741.59
2022-08-31T20:39:42.013Z,100737.28
2022-08-31T20:42:10.504Z,100741.00
2022-08-31T20:44:38.410Z,100743.56
2022-08-31T20:47:28.030Z,100748.16
2022-08-31T20:50:00.938Z,100755.56
2022-08-31T20:52:32.019Z,100757.56
2022-08-31T20:55:01.873Z,100760.63
2022-08-31T20:57:32.784Z,100752.56
2022-08-31T21:00:05.175Z,100747.97
2022-08-31T21:02:34.824Z,100748.53
2022-08-31T21:05:33.912Z,100757.31
2022-08-31T21:07:57.245Z,100744.75
2022-08-31T21:10:37.230Z,100754.84
2022-08-31T21:13:09.406Z,100745.47
2022-08-31T21:15:45.912Z,100743.25
2022-08-31T21:18:17.698Z,100738.63
2022-08-31T21:20:46.639Z,100738.91
2022-08-31T21:23:14.420Z,100740.75
2022-08-31T21:25:46.249Z,100748.03
2022-08-31T21:28:17.851Z,100732.00
2022-08-31T21:30:49.305Z,100734.88
2022-08-31T21:33:17.740Z,100730.34
2022-08-31T21:35:45.809Z,100724.91
2022-08-31T21:38:14.189Z,100739.06
2022-08-31T21:40:49.359Z,100739.16
2022-08-31T21:43:17.002Z,100728.25
2022-08-31T21:45:44.675Z,100735.06
2022-08-31T21:48:12.619Z,100731.81
2022-08-31T21:50:40.197Z,100732.88
2022-08-31T21:53:07.783Z,100733.47
2022-08-31T21:55:38.708Z,100736.59
2022-08-31T21:58:06.852Z,100736.16
2022-08-31T22:00:35.041Z,100740.00
2022-08-31T22:03:03.358Z,100735.75
2022-08-31T22:05:31.806Z,100745.31
2022-08-31T22:08:01.819Z,100735.59
2022-08-31T22:10:30.872Z,100734.22
2022-08-31T22:12:58.542Z,100731.81
2022-08-31T22:15:27.494Z,100728.72
2022-08-31T22:18:58.365Z,100724.31
2022-08-31T22:20:42.789Z,100723.31
2022-08-31T22:23:11.428Z,100724.59
2022-08-31T22:25:39.709Z,100727.09
2022-08-31T22:28:07.543Z,100729.03
2022-08-31T22:30:36.639Z,100725.53
2022-08-31T22:33:05.153Z,100723.09
2022-08-31T22:35:39.086Z,100721.59
2022-08-31T22:38:08.751Z,100724.53
2022-08-31T22:40:39.590Z,100722.28
2022-08-31T22:43:09.864Z,100727.94
2022-08-31T22:45:48.397Z,100722.94
2022-08-31T22:48:16.796Z,100718.34
2022-08-31T22:50:45.389Z,100722.88
2022-08-31T22:53:14.304Z,100710.03
2022-08-31T22:55:43.204Z,100714.94
2022-08-31T22:58:12.580Z,100707.53
2022-08-31T23:00:40.564Z,100708.06
2022-08-31T23:03:14.093Z,100704.75
2022-08-31T23:05:43.724Z,100697.81
2022-08-31T23:08:13.994Z,100706.50
2022-08-31T23:10:43.000Z,100701.41
2022-08-31T23:13:11.516Z,100707.25
2022-08-31T23:15:40.343Z,100709.66
2022-08-31T23:18:10.113Z,100707.81
2022-08-31T23:20:38.628Z,100699.63
2022-08-31T23:23:06.158Z,100699.50
2022-08-31T23:25:35.411Z,100698.13
2022-08-31T23:28:03.245Z,100702.47
2022-08-31T23:30:31.288Z,100702.69
2022-08-31T23:33:02.200Z,100699.78
2022-08-31T23:35:30.440Z,100699.47
2022-08-31T23:38:00.713Z,100694.72
2022-08-31T23:40:31.002Z,100695.28
2022-08-31T23:42:59.064Z,100689.59
2022-08-31T23:45:27.066Z,100689.00
2022-08-31T23:47:55.084Z,100678.06
2022-08-31T23:50:22.674Z,100675.38
2022-08-31T23:52:52.472Z,100677.81
2022-08-31T23:55:22.278Z,100671.34
2022-08-31T23:57:50.484Z,100676.16
